Time;durP1;ratioP1;P1;durP2;ratioP2;P2;SDS_P1;SDS_P2;PMS_P1;PMS_P2;Temp;Humidity;BMP_temperature;BMP_pressure;BME280_temperature;BME280_humidity;BME280_pressure;Samples;Min_cycle;Max_cycle;Signal;HPM_P1;HPM_P2
2022/05/07 00:01:50;;;;;;;10.02;2.83;;;;;;;14.07;100.00;98882.06;5132532;28;20047;-60
2022/05/07 00:04:17;;;;;;;8.00;3.50;;;;;;;14.08;100.00;98888.34;5132263;28;20047;-61
2022/05/07 00:06:43;;;;;;;8.57;3.58;;;;;;;14.10;100.00;98870.25;5132411;28;20053;-60
2022/05/07 00:09:09;;;;;;;5.57;2.92;;;;;;;14.10;100.00;98875.75;5132027;28;20093;-60
2022/05/07 00:11:35;;;;;;;10.32;3.53;;;;;;;14.09;100.00;98876.13;5132547;28;20047;-60
2022/05/07 00:14:01;;;;;;;4.88;3.08;;;;;;;14.00;100.00;98862.78;5132458;28;20054;-60
2022/05/07 00:19:12;;;;;;;;;;;;;;;13.98;100.00;98850.56;5132324;27;20512;-60
2022/05/07 00:21:38;;;;;;;6.47;3.17;;;;;;;13.88;100.00;98830.88;5132027;28;19923;-60
2022/05/07 00:24:06;;;;;;;6.28;3.17;;;;;;;13.88;100.00;98832.84;5132185;28;20498;-60
2022/05/07 00:26:32;;;;;;;7.25;4.03;;;;;;;13.84;100.00;98821.06;5132034;28;20055;-60
2022/05/07 00:28:58;;;;;;;5.68;3.88;;;;;;;13.85;100.00;98822.63;5132195;28;20051;-60
2022/05/07 00:31:24;;;;;;;6.80;3.10;;;;;;;13.83;100.00;98812.00;5131941;28;20576;-60
2022/05/07 00:33:50;;;;;;;7.07;3.15;;;;;;;13.85;100.00;98812.38;5131876;28;20051;-60
2022/05/07 00:36:17;;;;;;;5.43;4.18;;;;;;;13.81;100.00;98810.81;5131631;28;20085;-60
2022/05/07 00:38:43;;;;;;;5.90;3.35;;;;;;;13.80;100.00;98812.00;5131823;28;20047;-60
2022/05/07 00:41:10;;;;;;;7.57;3.65;;;;;;;13.80;100.00;98810.03;5131947;28;20070;-60
2022/05/07 00:43:37;;;;;;;4.80;3.47;;;;;;;13.79;100.00;98813.16;5131706;28;20047;-60
2022/05/07 00:46:05;;;;;;;7.38;3.90;;;;;;;13.74;100.00;98814.38;5131708;28;20200;-60
2022/05/07 00:48:31;;;;;;;8.32;3.55;;;;;;;13.67;100.00;98830.91;5131689;28;20050;-60
2022/05/07 00:53:42;;;;;;;;;;;;;;;13.59;100.00;98810.81;5132057;28;20042;-60
2022/05/07 00:56:09;;;;;;;10.40;3.75;;;;;;;13.54;100.00;98813.97;5131497;28;19923;-60
2022/05/07 00:58:35;;;;;;;9.40;3.80;;;;;;;13.55;100.00;98810.03;5131533;28;20514;-60
2022/05/07 01:01:02;;;;;;;9.85;3.50;;;;;;;13.55;100.00;98801.78;5131446;28;20043;-60
2022/05/07 01:03:28;;;;;;;6.97;3.92;;;;;;;13.53;100.00;98798.66;5131196;28;20407;-60
2022/05/07 01:05:55;;;;;;;11.80;3.60;;;;;;;13.52;100.00;98797.06;5131619;28;20053;-60
2022/05/07 01:08:21;;;;;;;8.20;3.83;;;;;;;13.51;100.00;98787.22;5131390;28;20058;-60
2022/05/07 01:10:47;;;;;;;6.65;3.40;;;;;;;13.56;100.00;98777.78;5131387;28;20055;-60
2022/05/07 01:13:14;;;;;;;6.70;3.47;;;;;;;13.52;100.00;98785.25;5131531;28;20047;-60
2022/05/07 01:15:44;;;;;;;7.60;3.70;;;;;;;13.46;100.00;98781.31;5131065;28;20051;-60
2022/05/07 01:18:10;;;;;;;8.18;4.18;;;;;;;13.46;100.00;98770.28;5131357;28;20058;-60
2022/05/07 01:20:36;;;;;;;6.35;3.67;;;;;;;13.42;100.00;98773.06;5131024;28;20043;-61
2022/05/07 01:23:03;;;;;;;8.52;3.78;;;;;;;13.40;100.00;98767.94;5131233;28;20073;-60
2022/05/07 01:25:29;;;;;;;10.90;4.60;;;;;;;13.42;100.00;98767.53;5131048;28;20073;-60
2022/05/07 01:27:55;;;;;;;8.50;4.30;;;;;;;13.45;100.00;98760.47;5131129;28;20051;-60
2022/05/07 01:30:23;;;;;;;4.95;3.97;;;;;;;13.44;100.00;98762.44;5129893;27;20535;-61
2022/05/07 01:32:49;;;;;;;10.27;4.32;;;;;;;13.45;100.00;98764.00;5131193;28;20076;-60
2022/05/07 01:35:15;;;;;;;7.53;4.13;;;;;;;13.45;100.00;98763.22;5130953;28;20498;-61
2022/05/07 01:37:42;;;;;;;13.63;4.57;;;;;;;13.45;100.00;98755.75;5130892;28;20129;-60
2022/05/07 01:40:11;;;;;;;6.40;3.85;;;;;;;13.44;100.00;98759.69;5131123;28;20509;-60
2022/05/07 01:42:37;;;;;;;6.13;3.58;;;;;;;13.40;100.00;98745.94;5130837;28;20047;-61
2022/05/07 01:45:04;;;;;;;9.52;5.07;;;;;;;13.39;100.00;98738.03;5130912;28;20048;-60
2022/05/07 01:50:14;;;;;;;8.95;4.25;;;;;;;13.32;100.00;98754.56;5131326;28;20046;-60
2022/05/07 01:52:40;;;;;;;6.57;4.22;;;;;;;13.33;100.00;98742.41;5130824;28;20509;-60
2022/05/07 01:55:07;;;;;;;9.57;4.15;;;;;;;13.34;100.00;98728.22;5130709;28;20043;-60
2022/05/07 01:57:34;;;;;;;6.85;4.05;;;;;;;13.39;100.00;98724.28;5130233;28;20043;-60
2022/05/07 02:00:00;;;;;;;6.63;3.80;;;;;;;13.34;100.00;98710.94;5130874;28;20055;-60
2022/05/07 02:02:26;;;;;;;7.88;4.25;;;;;;;13.29;100.00;98689.28;5130656;28;20050;-60
2022/05/07 02:04:52;;;;;;;6.22;3.83;;;;;;;13.26;100.00;98677.13;5130713;28;20054;-60
2022/05/07 02:07:18;;;;;;;4.75;3.67;;;;;;;13.20;100.00;98656.63;5130536;28;20052;-60
2022/05/07 02:09:45;;;;;;;7.65;4.03;;;;;;;13.20;100.00;98640.13;5130268;28;20051;-60
2022/05/07 02:12:11;;;;;;;6.03;3.55;;;;;;;13.18;100.00;98624.00;5130759;28;20078;-60
2022/05/07 02:14:38;;;;;;;8.82;3.92;;;;;;;13.14;100.00;98608.69;5130410;28;20051;-60
2022/05/07 02:17:04;;;;;;;8.05;3.95;;;;;;;13.11;100.00;98599.25;5130512;28;20062;-60
2022/05/07 02:19:31;;;;;;;6.00;4.13;;;;;;;13.12;100.00;98586.25;5130322;28;20059;-59
2022/05/07 02:21:57;;;;;;;6.75;4.18;;;;;;;13.13;100.00;98585.88;5130512;28;20051;-60
2022/05/07 02:24:23;;;;;;;5.80;3.85;;;;;;;13.09;100.00;98578.78;5130154;28;20055;-59
2022/05/07 02:26:49;;;;;;;8.95;4.40;;;;;;;13.07;100.00;98570.16;5130260;28;20468;-60
2022/05/07 02:29:15;;;;;;;8.80;3.72;;;;;;;13.02;100.00;98545.78;5130279;28;20051;-60
2022/05/07 02:32:03;;;;;;;6.40;4.53;;;;;;;13.02;100.00;98568.59;5130150;28;20043;-59
2022/05/07 02:34:30;;;;;;;5.65;3.53;;;;;;;13.01;100.00;98569.00;5130403;28;20463;-59
2022/05/07 02:36:56;;;;;;;7.70;4.82;;;;;;;12.98;100.00;98576.06;5129944;28;20051;-59
2022/05/07 02:39:22;;;;;;;4.78;3.42;;;;;;;12.99;100.00;98569.38;5130355;28;20054;-60
2022/05/07 02:44:33;;;;;;;5.85;3.70;;;;;;;13.00;100.00;98559.19;5133979;28;20157;-60
2022/05/07 02:47:00;;;;;;;8.73;4.20;;;;;;;13.00;100.00;98531.66;5133669;28;20055;-60
2022/05/07 02:49:26;;;;;;;7.45;4.07;;;;;;;12.93;100.00;98494.72;5133629;28;20050;-60
2022/05/07 02:51:52;;;;;;;7.15;4.18;;;;;;;12.93;100.00;98507.69;5133573;28;20531;-60
2022/05/07 02:54:19;;;;;;;6.50;4.00;;;;;;;12.89;100.00;98504.16;5133945;28;20043;-60
2022/05/07 02:56:45;;;;;;;6.70;3.80;;;;;;;12.89;100.00;98504.16;5133843;28;20059;-60
2022/05/07 02:59:11;;;;;;;10.30;4.38;;;;;;;12.91;100.00;98488.03;5133452;28;20104;-60
2022/05/07 03:01:37;;;;;;;8.73;3.70;;;;;;;12.92;100.00;98493.13;5133650;28;20141;-60
2022/05/07 03:04:04;;;;;;;8.48;3.65;;;;;;;12.93;100.00;98515.94;5133304;28;20096;-60
2022/05/07 03:06:30;;;;;;;8.55;4.38;;;;;;;12.94;100.00;98498.25;5133655;28;20100;-60
2022/05/07 03:08:56;;;;;;;9.32;5.80;;;;;;;12.90;100.00;98461.72;5133163;28;20058;-60
2022/05/07 03:11:23;;;;;;;6.82;3.40;;;;;;;12.89;100.00;98493.91;5133504;28;20096;-60
2022/05/07 03:13:49;;;;;;;8.32;4.25;;;;;;;12.92;100.00;98506.09;5133019;28;20430;-60
2022/05/07 03:16:15;;;;;;;12.75;4.15;;;;;;;12.94;100.00;98514.75;5132978;28;20062;-60
2022/05/07 03:18:41;;;;;;;6.32;3.90;;;;;;;13.00;100.00;98515.94;5133109;28;20050;-60
2022/05/07 03:21:09;;;;;;;10.23;4.05;;;;;;;13.00;100.00;98532.44;5133026;28;20051;-60
2022/05/07 03:23:35;;;;;;;6.90;3.72;;;;;;;13.01;100.00;98525.75;5133000;28;20047;-60
2022/05/07 03:26:01;;;;;;;6.53;4.05;;;;;;;13.05;100.00;98540.28;5132954;28;20054;-60
2022/05/07 03:28:28;;;;;;;9.02;3.88;;;;;;;13.07;100.00;98517.88;5133236;28;20043;-60
2022/05/07 03:30:54;;;;;;;5.53;3.90;;;;;;;13.09;100.00;98532.78;5132793;28;20525;-60
2022/05/07 03:33:20;;;;;;;13.68;4.10;;;;;;;13.07;100.00;98515.91;5132909;28;20047;-60
2022/05/07 03:35:47;;;;;;;4.90;3.72;;;;;;;13.08;100.00;98517.47;5132799;28;20055;-60
2022/05/07 03:38:14;;;;;;;9.10;4.03;;;;;;;13.14;100.00;98520.59;5133079;28;20082;-60
2022/05/07 03:40:40;;;;;;;8.48;4.07;;;;;;;13.20;100.00;98516.28;5132921;28;20051;-60
2022/05/07 03:43:06;;;;;;;6.82;3.50;;;;;;;13.35;100.00;98519.78;5132806;28;20489;-60
2022/05/07 03:45:32;;;;;;;6.88;3.33;;;;;;;13.44;100.00;98533.13;5132735;28;20047;-60
2022/05/07 03:47:59;;;;;;;11.85;3.85;;;;;;;13.53;100.00;98512.25;5132623;28;20490;-60
2022/05/07 03:50:25;;;;;;;6.25;3.53;;;;;;;13.60;100.00;98523.22;5132822;28;20074;-60
2022/05/07 03:55:41;;;;;;;10.02;3.67;;;;;;;13.71;100.00;98525.13;5132596;28;20082;-60
2022/05/07 03:58:10;;;;;;;6.25;3.78;;;;;;;13.89;100.00;98534.88;5132383;28;20426;-60
2022/05/07 04:00:37;;;;;;;8.32;4.18;;;;;;;14.04;100.00;98559.59;5132732;28;20054;-60
2022/05/07 04:03:03;;;;;;;6.57;4.10;;;;;;;13.97;100.00;98559.63;5132339;28;20058;-60
2022/05/07 04:05:29;;;;;;;6.28;4.30;;;;;;;13.94;100.00;98558.47;5132640;28;20046;-60
2022/05/07 04:07:55;;;;;;;10.13;4.60;;;;;;;13.87;100.00;98541.97;5132219;28;20047;-60
2022/05/07 04:10:22;;;;;;;13.75;5.25;;;;;;;13.86;100.00;98530.19;5132269;28;20073;-60
2022/05/07 04:12:51;;;;;;;13.98;5.85;;;;;;;13.85;100.00;98525.06;5132222;28;20062;-60
2022/05/07 04:15:17;;;;;;;10.27;5.18;;;;;;;13.85;100.00;98514.03;5132332;28;20120;-60
2022/05/07 04:17:43;;;;;;;9.18;4.80;;;;;;;13.92;100.00;98524.22;5132084;28;20051;-60
2022/05/07 04:20:12;;;;;;;11.32;4.88;;;;;;;13.91;100.00;98515.19;5132094;28;20047;-60
2022/05/07 04:22:38;;;;;;;6.88;4.07;;;;;;;13.88;100.00;98491.97;5132527;28;20054;-60
2022/05/07 04:25:06;;;;;;;10.73;4.90;;;;;;;13.92;100.00;98467.13;5131868;28;20103;-60
2022/05/07 04:27:32;;;;;;;5.13;3.28;;;;;;;14.01;100.00;98484.00;5132284;28;20047;-60
2022/05/07 04:29:59;;;;;;;11.57;4.00;;;;;;;14.00;100.00;98481.69;5131866;28;20047;-60
2022/05/07 04:32:25;;;;;;;8.00;3.35;;;;;;;14.05;100.00;98479.25;5132202;28;20438;-60
2022/05/07 04:34:52;;;;;;;8.07;3.58;;;;;;;14.13;100.00;98464.25;5131692;28;20471;-60
2022/05/07 04:37:19;;;;;;;7.07;3.58;;;;;;;14.19;100.00;98464.56;5131720;28;20058;-60
2022/05/07 04:39:47;;;;;;;5.30;3.83;;;;;;;14.24;100.00;98449.59;5131717;28;20073;-60
2022/05/07 04:42:13;;;;;;;6.32;3.33;;;;;;;14.28;100.00;98455.84;5131672;28;20141;-60
2022/05/07 04:44:39;;;;;;;8.82;3.30;;;;;;;14.29;100.00;98436.13;5131715;28;20528;-60
2022/05/07 04:47:06;;;;;;;6.15;3.80;;;;;;;14.35;100.00;98434.50;5131376;28;20051;-60
2022/05/07 04:49:33;;;;;;;7.20;3.45;;;;;;;14.40;100.00;98441.56;5131908;28;20043;-60
2022/05/07 04:51:59;;;;;;;7.65;3.92;;;;;;;14.46;100.00;98437.19;5131569;28;20077;-60
2022/05/07 04:54:25;;;;;;;14.43;4.30;;;;;;;14.49;100.00;98436.34;5131554;28;20051;-60
2022/05/07 04:56:53;;;;;;;8.68;4.18;;;;;;;14.54;100.00;98415.88;5131100;28;20100;-60
2022/05/07 04:59:20;;;;;;;7.03;3.55;;;;;;;14.59;100.00;98421.72;5131498;28;20506;-59
2022/05/07 05:01:47;;;;;;;13.13;4.15;;;;;;;14.63;100.00;98437.44;5131364;28;20506;-60
2022/05/07 05:04:14;;;;;;;10.88;4.25;;;;;;;14.74;100.00;98433.38;5131211;28;20047;-59
2022/05/07 05:06:40;;;;;;;17.58;5.10;;;;;;;14.82;100.00;98437.63;5131633;27;20055;-59
2022/05/07 05:09:08;;;;;;;13.27;4.75;;;;;;;14.89;100.00;98438.72;5131059;28;20058;-60
2022/05/07 05:11:34;;;;;;;7.53;4.10;;;;;;;14.97;100.00;98457.56;5131637;28;20142;-60
2022/05/07 05:14:01;;;;;;;8.73;3.95;;;;;;;15.03;100.00;98472.50;5131391;28;20418;-60
2022/05/07 05:16:47;;;;;;;6.43;3.97;;;;;;;15.11;100.00;98464.13;5130923;28;20050;-60
2022/05/07 05:19:14;;;;;;;8.23;4.07;;;;;;;15.14;100.00;98457.78;5131258;28;20058;-60
2022/05/07 05:21:41;;;;;;;8.55;4.00;;;;;;;15.16;100.00;98455.38;5131509;28;20047;-60
2022/05/07 05:24:07;;;;;;;7.05;3.67;;;;;;;15.16;100.00;98458.94;5131201;28;20062;-60
2022/05/07 05:26:34;;;;;;;10.20;3.92;;;;;;;15.14;100.00;98464.09;5131424;28;20047;-59
2022/05/07 05:29:00;;;;;;;8.20;4.32;;;;;;;15.08;100.00;98457.44;5131370;28;20043;-59
2022/05/07 05:31:28;;;;;;;8.13;5.78;;;;;;;15.03;100.00;98442.13;5131016;28;20091;-59
2022/05/07 05:33:54;;;;;;;11.52;4.10;;;;;;;15.04;100.00;98443.69;5131073;28;20057;-59
2022/05/07 05:36:21;;;;;;;25.95;5.28;;;;;;;15.03;100.00;98441.34;5130955;28;20047;-60
2022/05/07 05:38:47;;;;;;;7.07;4.57;;;;;;;15.05;100.00;98425.16;5131457;28;20525;-60
2022/05/07 05:41:14;;;;;;;11.65;3.72;;;;;;;15.06;100.00;98433.03;5130987;28;20047;-60
2022/05/07 05:43:40;;;;;;;14.15;3.95;;;;;;;15.06;100.00;98412.91;5130984;28;20051;-60
2022/05/07 05:46:06;;;;;;;10.57;5.03;;;;;;;15.20;100.00;98409.97;5130713;28;20043;-60
2022/05/07 05:48:32;;;;;;;8.60;4.32;;;;;;;15.41;100.00;98413.66;5130729;28;20047;-60
2022/05/07 05:50:59;;;;;;;9.18;4.18;;;;;;;15.50;100.00;98419.44;5130629;28;20105;-60
2022/05/07 05:53:26;;;;;;;9.60;3.80;;;;;;;15.53;100.00;98432.44;5130901;28;20054;-61
2022/05/07 05:55:52;;;;;;;18.25;4.68;;;;;;;15.50;100.00;98438.78;5130513;28;20058;-59
2022/05/07 05:58:18;;;;;;;6.85;3.80;;;;;;;15.44;100.00;98432.94;5130675;28;20070;-60
2022/05/07 06:00:45;;;;;;;11.27;5.43;;;;;;;15.35;100.00;98427.13;5130671;28;20058;-60
2022/05/07 06:03:11;;;;;;;10.05;4.07;;;;;;;15.34;100.00;98425.56;5130633;28;20187;-60
2022/05/07 06:05:37;;;;;;;8.23;4.35;;;;;;;15.35;100.00;98418.06;5130729;28;20054;-60
2022/05/07 06:08:04;;;;;;;12.27;5.75;;;;;;;15.28;100.00;98428.00;5130629;28;20062;-60
2022/05/07 06:10:31;;;;;;;5.72;4.07;;;;;;;15.27;100.00;98420.16;5130587;28;20051;-59
2022/05/07 06:12:57;;;;;;;9.50;4.53;;;;;;;15.27;100.00;98418.16;5130480;28;20051;-59
2022/05/07 06:15:24;;;;;;;10.05;4.57;;;;;;;15.34;100.00;98409.00;5130536;28;20090;-60
2022/05/07 06:17:50;;;;;;;12.27;7.30;;;;;;;15.31;100.00;98409.84;5132417;27;20509;-60
2022/05/07 06:20:16;;;;;;;8.60;4.22;;;;;;;15.40;100.00;98409.34;5134455;28;20051;-60
2022/05/07 06:22:42;;;;;;;10.20;5.13;;;;;;;15.46;100.00;98411.22;5133798;28;20088;-60
2022/05/07 06:27:54;;;;;;;11.73;5.63;;;;;;;15.91;100.00;98424.00;5134080;28;20125;-60
2022/05/07 06:30:20;;;;;;;10.50;6.05;;;;;;;16.00;100.00;98463.75;5133660;28;20051;-60
2022/05/07 06:32:46;;;;;;;5.47;3.70;;;;;;;15.92;100.00;98462.28;5134028;28;20051;-60
2022/05/07 06:35:13;;;;;;;10.07;6.50;;;;;;;15.85;100.00;98442.25;5133629;28;20043;-60
2022/05/07 06:37:39;;;;;;;10.95;4.97;;;;;;;15.80;100.00;98437.22;5133508;28;20051;-60
2022/05/07 06:40:07;;;;;;;11.88;5.50;;;;;;;15.55;100.00;98427.25;5133791;28;20047;-60
2022/05/07 06:42:35;;;;;;;10.43;6.25;;;;;;;15.30;100.00;98400.00;5133694;28;20096;-60
2022/05/07 06:45:02;;;;;;;16.80;8.13;;;;;;;15.04;100.00;98407.03;5133403;28;20043;-60
2022/05/07 06:47:28;;;;;;;13.88;5.82;;;;;;;14.83;100.00;98430.16;5133376;28;20051;-59
2022/05/07 06:49:54;;;;;;;22.15;6.43;;;;;;;14.65;100.00;98517.81;5133194;28;20095;-60
2022/05/07 06:52:20;;;;;;;12.85;5.65;;;;;;;14.45;100.00;98647.19;5133453;28;20051;-60
2022/05/07 06:54:47;;;;;;;25.08;5.70;;;;;;;14.37;100.00;98696.06;5133451;28;20497;-60
2022/05/07 06:57:13;;;;;;;15.50;5.72;;;;;;;14.32;100.00;98657.88;5133286;28;20108;-60
2022/05/07 06:59:39;;;;;;;11.60;5.97;;;;;;;14.28;100.00;98798.53;5133651;28;20062;-60
2022/05/07 07:02:06;;;;;;;8.02;5.50;;;;;;;14.23;100.00;98768.63;5133605;28;20390;-60
2022/05/07 07:04:32;;;;;;;8.07;5.85;;;;;;;14.23;100.00;98712.66;5133810;28;20043;-60
2022/05/07 07:06:58;;;;;;;11.93;6.03;;;;;;;14.26;100.00;98681.53;5133342;28;20058;-60
2022/05/07 07:09:24;;;;;;;15.35;6.07;;;;;;;14.31;100.00;98720.53;5133301;28;20514;-60
2022/05/07 07:11:50;;;;;;;8.38;5.47;;;;;;;14.32;100.00;99021.84;5133093;28;20051;-60
2022/05/07 07:14:17;;;;;;;13.85;6.93;;;;;;;14.33;100.00;99194.44;5133468;28;20100;-60
2022/05/07 07:16:43;;;;;;;12.40;5.95;;;;;;;14.23;100.00;99295.25;5132982;28;20526;-60
2022/05/07 07:19:10;;;;;;;11.57;6.45;;;;;;;14.22;100.00;99387.38;5133292;28;20074;-60
2022/05/07 07:21:36;;;;;;;12.50;5.95;;;;;;;14.20;100.00;99457.91;5133024;28;20547;-60
2022/05/07 07:24:02;;;;;;;10.95;6.90;;;;;;;14.20;100.00;99493.75;5132826;28;20063;-60
2022/05/07 07:26:29;;;;;;;17.13;7.18;;;;;;;14.24;100.00;99528.44;5133089;28;20054;-60
2022/05/07 07:28:56;;;;;;;14.60;6.45;;;;;;;14.40;100.00;99444.66;5131710;27;20078;-60
2022/05/07 07:31:22;;;;;;;14.40;6.32;;;;;;;14.52;100.00;99334.00;5132924;28;20043;-60
2022/05/07 07:33:48;;;;;;;10.68;6.95;;;;;;;14.66;100.00;99303.72;5132843;28;20057;-60
2022/05/07 07:36:15;;;;;;;12.60;6.97;;;;;;;14.85;100.00;99136.19;5132744;28;20063;-60
2022/05/07 07:38:41;;;;;;;14.15;6.63;;;;;;;14.97;100.00;98926.81;5132652;28;20146;-60
2022/05/07 07:41:07;;;;;;;23.50;8.05;;;;;;;15.17;100.00;98731.09;5132934;28;20050;-60
2022/05/07 07:43:34;;;;;;;17.50;7.85;;;;;;;15.34;100.00;98571.94;5132826;28;20054;-60
2022/05/07 07:48:46;;;;;;;17.25;7.13;;;;;;;15.40;100.00;98522.56;5132603;28;20054;-61
2022/05/07 07:51:12;;;;;;;14.07;9.00;;;;;;;15.52;100.00;98519.25;5132636;28;20137;-61
2022/05/07 07:53:40;;;;;;;13.02;7.63;;;;;;;15.68;100.00;98516.72;5132581;28;20055;-61
2022/05/07 07:56:07;;;;;;;11.75;6.95;;;;;;;15.83;100.00;98475.03;5132409;28;20077;-60
2022/05/07 07:58:34;;;;;;;13.10;8.35;;;;;;;15.94;100.00;98448.81;5132631;28;20046;-61
2022/05/07 08:01:00;;;;;;;12.73;5.88;;;;;;;15.98;100.00;98432.19;5132626;28;20051;-60
2022/05/07 08:03:26;;;;;;;18.67;6.32;;;;;;;15.96;100.00;98427.09;5132482;28;20065;-61
2022/05/07 08:05:53;;;;;;;18.92;7.65;;;;;;;16.04;100.00;98421.44;5132364;28;20069;-61
2022/05/07 08:13:53;;;;;;;13.60;8.00;;;;;;;16.39;100.00;98434.69;5132406;28;20129;-61
2022/05/07 08:16:20;;;;;;;9.25;6.03;;;;;;;16.48;100.00;98434.13;5132613;28;20398;-61
2022/05/07 08:18:47;;;;;;;12.02;7.70;;;;;;;16.58;100.00;98440.66;5132048;28;20535;-61
2022/05/07 08:21:13;;;;;;;13.30;7.95;;;;;;;16.69;100.00;98442.06;5132425;28;20047;-61
2022/05/07 08:23:41;;;;;;;7.18;5.47;;;;;;;17.03;100.00;98441.03;5132312;28;20047;-61
2022/05/07 08:26:09;;;;;;;25.55;10.85;;;;;;;17.24;100.00;98448.13;5132187;28;20141;-61
2022/05/07 08:28:37;;;;;;;13.98;8.90;;;;;;;17.48;100.00;98462.66;5131968;28;20051;-61
2022/05/07 08:31:04;;;;;;;14.70;6.60;;;;;;;17.93;100.00;98480.75;5131844;28;20072;-60
2022/05/07 08:33:32;;;;;;;17.75;8.82;;;;;;;18.27;100.00;98517.19;5131667;28;20054;-61
2022/05/07 08:35:58;;;;;;;15.75;7.60;;;;;;;18.79;100.00;98534.97;5131696;28;20493;-61
2022/05/07 08:38:25;;;;;;;15.77;8.45;;;;;;;19.07;100.00;98558.47;5131760;28;20058;-61
2022/05/07 08:40:51;;;;;;;12.82;8.35;;;;;;;19.30;100.00;98621.38;5131553;27;20133;-61
2022/05/07 08:43:19;;;;;;;15.05;8.10;;;;;;;19.23;100.00;98622.34;5131703;28;20047;-61
2022/05/07 08:45:45;;;;;;;18.13;8.63;;;;;;;18.94;100.00;98616.72;5131495;28;20082;-61
2022/05/07 08:48:12;;;;;;;20.85;8.90;;;;;;;18.73;100.00;98595.81;5131775;28;20051;-61
2022/05/07 08:50:39;;;;;;;16.25;8.25;;;;;;;18.65;100.00;98591.59;5131566;28;20046;-61
2022/05/07 08:53:06;;;;;;;16.08;8.57;;;;;;;18.79;100.00;98573.84;5131493;28;20048;-61
2022/05/07 08:55:32;;;;;;;16.25;8.80;;;;;;;18.79;100.00;98585.75;5131594;28;20051;-61
2022/05/07 08:57:58;;;;;;;17.40;8.23;;;;;;;18.84;100.00;98611.44;5131412;28;20047;-61
2022/05/07 09:00:27;;;;;;;15.32;8.05;;;;;;;18.92;100.00;98618.38;5132030;28;20055;-61
2022/05/07 09:02:55;;;;;;;19.80;8.95;;;;;;;18.96;100.00;98610.72;5131358;28;20047;-61
2022/05/07 09:05:32;;;;;;;13.38;8.63;;;;;;;19.07;100.00;98600.13;5131410;28;20047;-61
2022/05/07 09:07:59;;;;;;;11.50;8.20;;;;;;;19.61;100.00;98610.63;5131268;28;20051;-61
2022/05/07 09:10:27;;;;;;;10.90;8.27;;;;;;;20.14;100.00;98644.50;5131502;28;20490;-61
2022/05/07 09:12:53;;;;;;;14.80;8.23;;;;;;;20.80;100.00;98642.13;5131432;28;20047;-61
2022/05/07 09:15:19;;;;;;;13.55;9.52;;;;;;;21.48;100.00;98700.47;5131525;28;20503;-61
2022/05/07 09:17:47;;;;;;;17.88;10.02;;;;;;;21.51;100.00;98758.91;5131096;28;20043;-61
2022/05/07 09:20:15;;;;;;;13.23;8.38;;;;;;;21.45;100.00;98740.41;5131296;28;20046;-61
2022/05/07 09:22:49;;;;;;;9.30;7.57;;;;;;;21.31;100.00;98731.25;5131182;28;20059;-61
2022/05/07 09:25:19;;;;;;;14.63;8.65;;;;;;;21.74;100.00;98729.84;5131311;28;20364;-61
2022/05/07 09:27:46;;;;;;;13.82;8.30;;;;;;;22.09;100.00;98746.56;5130867;28;20410;-61
2022/05/07 09:30:12;;;;;;;9.88;7.90;;;;;;;22.41;100.00;98767.78;5131065;28;20066;-61
2022/05/07 09:32:39;;;;;;;9.98;7.65;;;;;;;22.69;100.00;98787.50;5130994;28;20043;-61
2022/05/07 09:38:01;;;;;;;13.90;7.40;;;;;;;23.09;100.00;98832.38;5131065;28;20515;-61
2022/05/07 09:40:28;;;;;;;12.85;8.00;;;;;;;23.25;100.00;98839.72;5130918;28;20051;-61
2022/05/07 09:42:57;;;;;;;11.23;7.40;;;;;;;23.27;100.00;98831.66;5131030;28;20051;-61
2022/05/07 09:45:25;;;;;;;9.38;6.72;;;;;;;23.27;100.00;98811.31;5130792;28;20051;-61
2022/05/07 09:47:52;;;;;;;7.90;6.45;;;;;;;22.98;100.00;98845.94;5130705;28;20054;-61
2022/05/07 09:50:24;;;;;;;10.13;6.60;;;;;;;22.95;100.00;98816.13;5130615;28;20050;-61
2022/05/07 09:58:20;;;;;;;8.88;7.35;;;;;;;22.30;100.00;98770.19;5130567;28;20050;-61
2022/05/07 10:01:09;;;;;;;8.82;6.88;;;;;;;22.36;100.00;98757.22;5130762;28;20101;-61
2022/05/07 10:03:45;;;;;;;12.70;8.27;;;;;;;22.15;100.00;98783.88;5128596;28;20067;-61
2022/05/07 10:06:24;;;;;;;11.05;9.20;;;;;;;22.26;100.00;98775.91;5130634;28;20062;-61
2022/05/07 10:09:06;;;;;;;9.02;7.25;;;;;;;22.45;100.00;98793.56;5130608;28;20058;-61
2022/05/07 10:11:33;;;;;;;9.75;8.48;;;;;;;22.47;100.00;98779.94;5130520;28;20070;-61
2022/05/07 10:13:59;;;;;;;11.00;7.70;;;;;;;22.63;100.00;98765.00;5130624;28;20050;-61
2022/05/07 10:16:29;;;;;;;8.38;7.57;;;;;;;22.67;100.00;98795.59;5130338;28;20047;-61
2022/05/07 10:18:55;;;;;;;13.60;8.15;;;;;;;22.70;100.00;98786.31;5130043;28;20052;-61
2022/05/07 10:21:23;;;;;;;8.10;7.28;;;;;;;22.83;100.00;98795.38;5130295;28;20054;-61
2022/05/07 10:23:52;;;;;;;15.52;8.07;;;;;;;22.95;100.00;98802.91;5130110;28;20051;-61
2022/05/07 10:26:19;;;;;;;11.50;7.70;;;;;;;23.00;100.00;98787.59;5130165;28;20096;-61
2022/05/07 10:28:46;;;;;;;13.68;8.68;;;;;;;23.12;100.00;98797.88;5130340;28;20070;-62
2022/05/07 10:31:19;;;;;;;15.77;8.45;;;;;;;23.19;100.00;98811.59;5130151;28;20051;-61
2022/05/07 10:33:46;;;;;;;;;;;;;;;23.05;100.00;98825.34;5130292;28;20638;-61
2022/05/07 10:36:12;;;;;;;12.23;8.77;;;;;;;23.01;100.00;98801.09;5130174;28;19923;-61
2022/05/07 10:38:42;;;;;;;14.85;7.72;;;;;;;22.92;100.00;98787.03;5130042;28;20059;-62
2022/05/07 10:41:20;;;;;;;11.23;8.30;;;;;;;22.91;100.00;98784.69;5130003;28;20506;-61
2022/05/07 10:43:48;;;;;;;13.18;7.32;;;;;;;22.75;100.00;98780.88;5129999;28;20047;-61
2022/05/07 10:46:16;;;;;;;9.27;7.38;;;;;;;22.33;100.00;98758.13;5129909;28;20051;-61
2022/05/07 10:48:44;;;;;;;8.73;7.82;;;;;;;22.09;100.00;98721.44;5129894;28;20059;-61
2022/05/07 10:51:18;;;;;;;11.27;8.10;;;;;;;21.70;100.00;98690.16;5129824;28;20446;-61
2022/05/07 10:53:45;;;;;;;10.23;7.18;;;;;;;21.42;100.00;98652.84;5130066;28;20429;-61
2022/05/07 10:56:13;;;;;;;11.43;8.38;;;;;;;21.05;100.00;98634.97;5130054;28;20054;-61
2022/05/07 10:58:44;;;;;;;14.20;7.53;;;;;;;20.97;100.00;98628.84;5130101;28;20082;-61
2022/05/07 11:01:11;;;;;;;9.63;7.65;;;;;;;20.89;100.00;98608.00;5129905;28;20194;-61
2022/05/07 11:03:37;;;;;;;9.23;7.13;;;;;;;21.16;100.00;98604.75;5132004;27;20058;-61
2022/05/07 11:06:03;;;;;;;7.72;7.03;;;;;;;21.42;100.00;98629.78;5133679;28;20112;-61
2022/05/07 11:08:30;;;;;;;13.27;8.02;;;;;;;21.66;100.00;98628.13;5133811;28;20050;-61
2022/05/07 11:11:10;;;;;;;8.90;7.18;;;;;;;21.58;100.00;98635.19;5133482;28;20075;-61
2022/05/07 11:13:45;;;;;;;11.15;7.65;;;;;;;21.35;100.00;98622.44;5133131;28;20077;-61
2022/05/07 11:16:11;;;;;;;13.00;8.07;;;;;;;21.26;100.00;98605.59;5133688;28;20070;-61
2022/05/07 11:18:40;;;;;;;10.75;7.93;;;;;;;21.17;100.00;98608.31;5133252;28;20061;-61
2022/05/07 11:21:08;;;;;;;11.00;7.45;;;;;;;21.11;100.00;98585.78;5133569;28;20047;-61
2022/05/07 11:23:39;;;;;;;12.05;8.43;;;;;;;21.03;100.00;98590.06;5133193;28;20047;-61
2022/05/07 11:26:16;;;;;;;8.43;6.90;;;;;;;20.91;100.00;98556.19;5133342;28;20084;-61
2022/05/07 11:28:44;;;;;;;9.38;7.15;;;;;;;20.95;100.00;98558.09;5132931;28;20426;-61
2022/05/07 11:31:11;;;;;;;11.88;6.97;;;;;;;21.08;100.00;98556.03;5133134;28;20047;-61
2022/05/07 11:33:38;;;;;;;11.80;7.32;;;;;;;21.10;100.00;98573.88;5132911;28;20050;-61
2022/05/07 11:36:06;;;;;;;11.55;8.07;;;;;;;20.62;100.00;98569.50;5132965;28;20070;-61
2022/05/07 11:38:33;;;;;;;7.15;6.43;;;;;;;20.53;100.00;98524.88;5132653;28;20055;-61
2022/05/07 11:41:08;;;;;;;9.50;7.80;;;;;;;20.61;100.00;98543.66;5132800;28;20051;-61
2022/05/07 11:46:19;;;;;;;8.35;7.53;;;;;;;20.59;100.00;98540.56;5132881;28;20092;-61
2022/05/07 11:48:46;;;;;;;8.93;8.02;;;;;;;20.79;100.00;98523.59;5132833;28;20480;-62
2022/05/07 11:51:22;;;;;;;9.30;8.40;;;;;;;21.00;100.00;98549.94;5132779;28;20048;-61
2022/05/07 11:53:48;;;;;;;10.13;8.18;;;;;;;21.11;100.00;98535.63;5132818;28;20464;-61
2022/05/07 11:56:14;;;;;;;11.13;7.70;;;;;;;21.07;100.00;98516.25;5132755;28;20399;-61
2022/05/07 11:58:43;;;;;;;8.90;8.00;;;;;;;20.94;100.00;98548.94;5132411;28;20051;-61